sensor_id;sensor_type;location;lat;lon;timestamp;temperature;humidity
65040;HTU21D;51606;45.000;38.612;2023-02-26T04:45:15;13.37;43.38
65040;HTU21D;51606;45.000;38.612;2023-02-26T04:47:42;13.48;43.00
65040;HTU21D;51606;45.000;38.612;2023-02-26T04:50:08;13.59;42.88
65040;HTU21D;51606;45.000;38.612;2023-02-26T04:52:35;13.67;43.03
65040;HTU21D;51606;45.000;38.612;2023-02-26T04:55:01;13.76;42.77
65040;HTU21D;51606;45.000;38.612;2023-02-26T04:57:28;13.84;42.72
65040;HTU21D;51606;45.000;38.612;2023-02-26T04:59:54;13.95;42.68
65040;HTU21D;51606;45.000;38.612;2023-02-26T05:02:26;14.00;42.69
65040;HTU21D;51606;45.000;38.612;2023-02-26T05:04:52;14.07;42.60
65040;HTU21D;51606;45.000;38.612;2023-02-26T05:07:19;14.15;42.28
65040;HTU21D;51606;45.000;38.612;2023-02-26T05:09:48;14.28;42.17
65040;HTU21D;51606;45.000;38.612;2023-02-26T05:12:14;14.43;42.11
65040;HTU21D;51606;45.000;38.612;2023-02-26T05:14:41;14.54;42.01
65040;HTU21D;51606;45.000;38.612;2023-02-26T05:17:07;14.59;41.88
65040;HTU21D;51606;45.000;38.612;2023-02-26T05:19:34;14.57;41.98
65040;HTU21D;51606;45.000;38.612;2023-02-26T05:22:04;14.59;41.68
65040;HTU21D;51606;45.000;38.612;2023-02-26T05:24:30;14.63;41.57
65040;HTU21D;51606;45.000;38.612;2023-02-26T05:26:57;14.64;41.91
65040;HTU21D;51606;45.000;38.612;2023-02-26T05:29:23;14.66;41.68
65040;HTU21D;51606;45.000;38.612;2023-02-26T05:31:50;14.69;41.74
65040;HTU21D;51606;45.000;38.612;2023-02-26T05:34:16;14.70;41.78
65040;HTU21D;51606;45.000;38.612;2023-02-26T05:36:42;14.72;41.78
65040;HTU21D;51606;45.000;38.612;2023-02-26T05:39:09;14.77;41.92
65040;HTU21D;51606;45.000;38.612;2023-02-26T05:41:35;14.78;41.71
65040;HTU21D;51606;45.000;38.612;2023-02-26T05:44:02;14.80;41.97
65040;HTU21D;51606;45.000;38.612;2023-02-26T05:46:28;14.81;42.00
65040;HTU21D;51606;45.000;38.612;2023-02-26T05:48:55;14.83;41.84
65040;HTU21D;51606;45.000;38.612;2023-02-26T05:51:21;14.86;41.85
65040;HTU21D;51606;45.000;38.612;2023-02-26T05:53:48;14.89;41.87
65040;HTU21D;51606;45.000;38.612;2023-02-26T05:56:14;14.94;41.90
65040;HTU21D;51606;45.000;38.612;2023-02-26T05:58:40;14.97;41.82
65040;HTU21D;51606;45.000;38.612;2023-02-26T06:01:07;14.99;41.84
65040;HTU21D;51606;45.000;38.612;2023-02-26T06:03:33;15.02;41.84
65040;HTU21D;51606;45.000;38.612;2023-02-26T06:05:59;15.08;41.58
65040;HTU21D;51606;45.000;38.612;2023-02-26T06:08:26;15.12;41.59
65040;HTU21D;51606;45.000;38.612;2023-02-26T06:10:52;15.16;41.78
65040;HTU21D;51606;45.000;38.612;2023-02-26T06:13:19;15.23;41.84
65040;HTU21D;51606;45.000;38.612;2023-02-26T06:15:48;15.26;41.78
65040;HTU21D;51606;45.000;38.612;2023-02-26T06:18:14;15.32;41.68
65040;HTU21D;51606;45.000;38.612;2023-02-26T06:20:41;15.36;41.71
65040;HTU21D;51606;45.000;38.612;2023-02-26T06:23:07;15.38;41.65
65040;HTU21D;51606;45.000;38.612;2023-02-26T06:25:33;15.36;41.66
65040;HTU21D;51606;45.000;38.612;2023-02-26T06:28:00;15.38;41.16
65040;HTU21D;51606;45.000;38.612;2023-02-26T06:30:26;15.41;41.38
65040;HTU21D;51606;45.000;38.612;2023-02-26T06:32:52;15.41;41.33
65040;HTU21D;51606;45.000;38.612;2023-02-26T06:35:18;15.43;41.54
65040;HTU21D;51606;45.000;38.612;2023-02-26T06:37:45;15.45;41.23
65040;HTU21D;51606;45.000;38.612;2023-02-26T06:40:12;15.49;40.97
65040;HTU21D;51606;45.000;38.612;2023-02-26T06:42:39;15.54;40.55
65040;HTU21D;51606;45.000;38.612;2023-02-26T06:45:06;15.60;40.78
65040;HTU21D;51606;45.000;38.612;2023-02-26T06:47:32;15.61;40.99
65040;HTU21D;51606;45.000;38.612;2023-02-26T06:49:58;15.63;40.93
65040;HTU21D;51606;45.000;38.612;2023-02-26T06:52:25;15.68;40.81
65040;HTU21D;51606;45.000;38.612;2023-02-26T06:54:51;15.74;40.72
65040;HTU21D;51606;45.000;38.612;2023-02-26T06:57:18;15.77;40.53
65040;HTU21D;51606;45.000;38.612;2023-02-26T06:59:44;15.83;40.65
65040;HTU21D;51606;45.000;38.612;2023-02-26T07:02:18;15.87;40.43
65040;HTU21D;51606;45.000;38.612;2023-02-26T07:04:45;15.90;40.62
65040;HTU21D;51606;45.000;38.612;2023-02-26T07:07:11;15.96;40.05
65040;HTU21D;51606;45.000;38.612;2023-02-26T07:09:38;16.02;39.75
65040;HTU21D;51606;45.000;38.612;2023-02-26T07:12:04;16.11;39.78
65040;HTU21D;51606;45.000;38.612;2023-02-26T07:14:33;16.16;40.02
65040;HTU21D;51606;45.000;38.612;2023-02-26T07:17:00;16.25;39.98
65040;HTU21D;51606;45.000;38.612;2023-02-26T07:19:26;16.30;39.85
65040;HTU21D;51606;45.000;38.612;2023-02-26T07:21:52;16.39;39.79
65040;HTU21D;51606;45.000;38.612;2023-02-26T07:24:21;16.45;39.54
65040;HTU21D;51606;45.000;38.612;2023-02-26T07:26:47;16.49;39.11
65040;HTU21D;51606;45.000;38.612;2023-02-26T07:29:13;16.52;39.26
65040;HTU21D;51606;45.000;38.612;2023-02-26T07:31:39;16.55;39.30
65040;HTU21D;51606;45.000;38.612;2023-02-26T07:34:06;16.59;39.53
65040;HTU21D;51606;45.000;38.612;2023-02-26T07:36:32;16.63;39.55
65040;HTU21D;51606;45.000;38.612;2023-02-26T07:38:58;16.69;39.46
65040;HTU21D;51606;45.000;38.612;2023-02-26T07:41:25;16.73;39.62
65040;HTU21D;51606;45.000;38.612;2023-02-26T07:43:51;16.77;39.39
65040;HTU21D;51606;45.000;38.612;2023-02-26T07:46:18;16.81;39.37
65040;HTU21D;51606;45.000;38.612;2023-02-26T07:48:45;16.88;39.49
65040;HTU21D;51606;45.000;38.612;2023-02-26T07:51:11;16.95;39.59
65040;HTU21D;51606;45.000;38.612;2023-02-26T07:53:37;17.04;39.62
65040;HTU21D;51606;45.000;38.612;2023-02-26T07:56:04;17.10;39.44
65040;HTU21D;51606;45.000;38.612;2023-02-26T07:58:30;17.17;38.75
65040;HTU21D;51606;45.000;38.612;2023-02-26T08:00:57;17.22;38.67
65040;HTU21D;51606;45.000;38.612;2023-02-26T08:03:23;17.26;38.73
65040;HTU21D;51606;45.000;38.612;2023-02-26T08:05:50;17.29;38.94
65040;HTU21D;51606;45.000;38.612;2023-02-26T08:08:16;17.33;38.94
65040;HTU21D;51606;45.000;38.612;2023-02-26T08:10:42;17.33;38.89
65040;HTU21D;51606;45.000;38.612;2023-02-26T08:13:09;17.36;38.88
65040;HTU21D;51606;45.000;38.612;2023-02-26T08:15:35;17.39;38.67
65040;HTU21D;51606;45.000;38.612;2023-02-26T08:18:02;17.43;38.90
65040;HTU21D;51606;45.000;38.612;2023-02-26T08:20:28;17.47;38.94
65040;HTU21D;51606;45.000;38.612;2023-02-26T08:22:55;17.53;38.73
65040;HTU21D;51606;45.000;38.612;2023-02-26T08:25:21;17.59;38.89
65040;HTU21D;51606;45.000;38.612;2023-02-26T08:27:47;17.68;38.94
65040;HTU21D;51606;45.000;38.612;2023-02-26T08:30:14;17.73;38.89
65040;HTU21D;51606;45.000;38.612;2023-02-26T08:32:40;17.77;38.92
65040;HTU21D;51606;45.000;38.612;2023-02-26T08:35:08;17.81;38.97
65040;HTU21D;51606;45.000;38.612;2023-02-26T08:37:34;17.88;39.17
65040;HTU21D;51606;45.000;38.612;2023-02-26T08:40:01;17.96;39.11
65040;HTU21D;51606;45.000;38.612;2023-02-26T08:42:30;18.03;38.97
65040;HTU21D;51606;45.000;38.612;2023-02-26T08:44:56;18.07;39.04
65040;HTU21D;51606;45.000;38.612;2023-02-26T08:47:23;18.09;38.75
65040;HTU21D;51606;45.000;38.612;2023-02-26T08:49:49;18.12;38.94
65040;HTU21D;51606;45.000;38.612;2023-02-26T08:52:15;18.17;39.07
65040;HTU21D;51606;45.000;38.612;2023-02-26T08:54:42;18.23;39.04
65040;HTU21D;51606;45.000;38.612;2023-02-26T08:57:08;18.23;38.88
65040;HTU21D;51606;45.000;38.612;2023-02-26T08:59:34;18.22;38.69
65040;HTU21D;51606;45.000;38.612;2023-02-26T09:02:01;18.17;38.80
65040;HTU21D;51606;45.000;38.612;2023-02-26T09:04:27;18.20;38.85
65040;HTU21D;51606;45.000;38.612;2023-02-26T09:06:53;18.21;38.72
65040;HTU21D;51606;45.000;38.612;2023-02-26T09:09:20;18.19;38.55
65040;HTU21D;51606;45.000;38.612;2023-02-26T09:11:47;18.15;38.61
65040;HTU21D;51606;45.000;38.612;2023-02-26T09:14:13;18.15;38.62
65040;HTU21D;51606;45.000;38.612;2023-02-26T09:16:39;18.19;38.81
65040;HTU21D;51606;45.000;38.612;2023-02-26T09:19:06;18.20;38.56
65040;HTU21D;51606;45.000;38.612;2023-02-26T09:21:33;18.22;38.46
65040;HTU21D;51606;45.000;38.612;2023-02-26T09:24:00;18.22;38.44
65040;HTU21D;51606;45.000;38.612;2023-02-26T09:26:27;18.27;38.56
65040;HTU21D;51606;45.000;38.612;2023-02-26T09:28:53;18.34;38.56
65040;HTU21D;51606;45.000;38.612;2023-02-26T09:31:20;18.36;38.75
65040;HTU21D;51606;45.000;38.612;2023-02-26T09:33:46;18.43;38.75
65040;HTU21D;51606;45.000;38.612;2023-02-26T09:36:12;18.49;38.75
65040;HTU21D;51606;45.000;38.612;2023-02-26T09:38:39;18.48;38.52
65040;HTU21D;51606;45.000;38.612;2023-02-26T09:41:16;18.48;38.67
65040;HTU21D;51606;45.000;38.612;2023-02-26T09:46:31;18.53;38.40
65040;HTU21D;51606;45.000;38.612;2023-02-26T09:49:27;18.61;38.44
65040;HTU21D;51606;45.000;38.612;2023-02-26T09:54:51;18.94;38.66
65040;HTU21D;51606;45.000;38.612;2023-02-26T09:57:30;19.06;38.61
65040;HTU21D;51606;45.000;38.612;2023-02-26T09:59:57;19.09;38.45
65040;HTU21D;51606;45.000;38.612;2023-02-26T10:12:36;19.37;38.59
65040;HTU21D;51606;45.000;38.612;2023-02-26T10:15:30;19.39;38.62
65040;HTU21D;51606;45.000;38.612;2023-02-26T10:23:42;19.41;39.01
65040;HTU21D;51606;45.000;38.612;2023-02-26T10:29:14;19.43;38.72
65040;HTU21D;51606;45.000;38.612;2023-02-26T10:37:00;19.26;39.27
65040;HTU21D;51606;45.000;38.612;2023-02-26T10:42:48;19.13;39.03
65040;HTU21D;51606;45.000;38.612;2023-02-26T10:53:17;19.05;39.46
65040;HTU21D;51606;45.000;38.612;2023-02-26T10:56:16;19.06;39.27
65040;HTU21D;51606;45.000;38.612;2023-02-26T10:58:45;19.05;39.48
65040;HTU21D;51606;45.000;38.612;2023-02-26T11:01:23;19.08;39.24
65040;HTU21D;51606;45.000;38.612;2023-02-26T11:04:10;19.08;39.03
65040;HTU21D;51606;45.000;38.612;2023-02-26T11:07:00;19.07;39.15
65040;HTU21D;51606;45.000;38.612;2023-02-26T11:09:44;19.12;39.23
65040;HTU21D;51606;45.000;38.612;2023-02-26T11:14:39;19.11;39.11
65040;HTU21D;51606;45.000;38.612;2023-02-26T11:17:16;19.10;39.09
65040;HTU21D;51606;45.000;38.612;2023-02-26T11:19:52;19.13;39.02
65040;HTU21D;51606;45.000;38.612;2023-02-26T11:22:25;19.16;38.87
65040;HTU21D;51606;45.000;38.612;2023-02-26T11:24:53;19.15;38.86
65040;HTU21D;51606;45.000;38.612;2023-02-26T11:27:24;19.16;39.05
65040;HTU21D;51606;45.000;38.612;2023-02-26T11:29:56;19.13;38.88
65040;HTU21D;51606;45.000;38.612;2023-02-26T11:32:32;19.11;39.15
65040;HTU21D;51606;45.000;38.612;2023-02-26T11:34:59;19.11;39.30
65040;HTU21D;51606;45.000;38.612;2023-02-26T11:37:38;19.09;39.27
65040;HTU21D;51606;45.000;38.612;2023-02-26T11:40:53;19.06;39.35
65040;HTU21D;51606;45.000;38.612;2023-02-26T11:42:57;18.98;39.30
65040;HTU21D;51606;45.000;38.612;2023-02-26T11:45:24;18.88;39.45
65040;HTU21D;51606;45.000;38.612;2023-02-26T11:48:05;18.79;39.55
65040;HTU21D;51606;45.000;38.612;2023-02-26T11:50:57;18.76;39.65
65040;HTU21D;51606;45.000;38.612;2023-02-26T11:53:25;18.67;39.89
65040;HTU21D;51606;45.000;38.612;2023-02-26T11:56:08;18.59;39.78
65040;HTU21D;51606;45.000;38.612;2023-02-26T11:58:37;18.55;39.84
65040;HTU21D;51606;45.000;38.612;2023-02-26T12:01:06;18.50;39.83
65040;HTU21D;51606;45.000;38.612;2023-02-26T12:03:37;18.48;39.90
65040;HTU21D;51606;45.000;38.612;2023-02-26T12:06:18;18.44;40.01
65040;HTU21D;51606;45.000;38.612;2023-02-26T12:08:45;18.44;40.16
65040;HTU21D;51606;45.000;38.612;2023-02-26T12:17:04;18.39;40.39
65040;HTU21D;51606;45.000;38.612;2023-02-26T12:22:41;18.35;40.38
65040;HTU21D;51606;45.000;38.612;2023-02-26T12:25:18;18.28;40.54
65040;HTU21D;51606;45.000;38.612;2023-02-26T12:31:06;18.24;40.70
65040;HTU21D;51606;45.000;38.612;2023-02-26T12:48:05;17.99;41.42
65040;HTU21D;51606;45.000;38.612;2023-02-26T12:51:00;17.93;41.42
65040;HTU21D;51606;45.000;38.612;2023-02-26T12:53:39;17.87;41.64
65040;HTU21D;51606;45.000;38.612;2023-02-26T13:01:33;17.75;41.90
65040;HTU21D;51606;45.000;38.612;2023-02-26T13:04:06;17.75;42.07
65040;HTU21D;51606;45.000;38.612;2023-02-26T13:17:36;17.93;41.86
65040;HTU21D;51606;45.000;38.612;2023-02-26T13:20:37;17.84;42.10
65040;HTU21D;51606;45.000;38.612;2023-02-26T13:23:18;17.79;42.05
65040;HTU21D;51606;45.000;38.612;2023-02-26T13:25:53;17.69;42.10
65040;HTU21D;51606;45.000;38.612;2023-02-26T13:28:35;17.59;42.22
65040;HTU21D;51606;45.000;38.612;2023-02-26T13:34:12;17.35;42.55
65040;HTU21D;51606;45.000;38.612;2023-02-26T13:36:41;17.23;42.69
65040;HTU21D;51606;45.000;38.612;2023-02-26T13:50:59;16.64;43.21
65040;HTU21D;51606;45.000;38.612;2023-02-26T13:53:51;16.58;43.39
65040;HTU21D;51606;45.000;38.612;2023-02-26T13:56:22;16.54;43.52
65040;HTU21D;51606;45.000;38.612;2023-02-26T14:06:53;16.19;43.93
65040;HTU21D;51606;45.000;38.612;2023-02-26T14:11:58;15.99;44.19
65040;HTU21D;51606;45.000;38.612;2023-02-26T14:14:39;15.88;44.31
65040;HTU21D;51606;45.000;38.612;2023-02-26T14:19:40;15.65;44.59
65040;HTU21D;51606;45.000;38.612;2023-02-26T14:27:33;15.25;45.10
65040;HTU21D;51606;45.000;38.612;2023-02-26T14:33:14;15.00;45.30
65040;HTU21D;51606;45.000;38.612;2023-02-26T14:35:42;14.85;45.51
65040;HTU21D;51606;45.000;38.612;2023-02-26T14:38:33;14.68;45.73
65040;HTU21D;51606;45.000;38.612;2023-02-26T14:43:38;14.43;46.05
65040;HTU21D;51606;45.000;38.612;2023-02-26T14:46:07;14.36;46.12
65040;HTU21D;51606;45.000;38.612;2023-02-26T14:48:34;14.23;46.20
65040;HTU21D;51606;45.000;38.612;2023-02-26T15:02:18;13.70;46.73
65040;HTU21D;51606;45.000;38.612;2023-02-26T15:11:02;13.30;47.20
65040;HTU21D;51606;45.000;38.612;2023-02-26T15:16:57;13.05;47.50
65040;HTU21D;51606;45.000;38.612;2023-02-26T15:22:55;12.79;47.76
65040;HTU21D;51606;45.000;38.612;2023-02-26T15:27:51;12.67;47.89
65040;HTU21D;51606;45.000;38.612;2023-02-26T15:30:18;12.64;47.92
65040;HTU21D;51606;45.000;38.612;2023-02-26T15:32:45;12.62;47.97
65040;HTU21D;51606;45.000;38.612;2023-02-26T15:35:19;12.60;48.01
65040;HTU21D;51606;45.000;38.612;2023-02-26T15:37:54;12.58;48.03
65040;HTU21D;51606;45.000;38.612;2023-02-26T15:40:24;12.61;48.01
65040;HTU21D;51606;45.000;38.612;2023-02-26T15:42:54;12.59;48.02
65040;HTU21D;51606;45.000;38.612;2023-02-26T15:45:23;12.56;48.09
65040;HTU21D;51606;45.000;38.612;2023-02-26T15:47:54;12.52;48.15
65040;HTU21D;51606;45.000;38.612;2023-02-26T15:50:26;12.49;48.24
65040;HTU21D;51606;45.000;38.612;2023-02-26T15:52:57;12.47;48.31
65040;HTU21D;51606;45.000;38.612;2023-02-26T15:55:25;12.47;48.34
65040;HTU21D;51606;45.000;38.612;2023-02-26T15:57:52;12.46;48.37
65040;HTU21D;51606;45.000;38.612;2023-02-26T16:00:21;12.49;48.43
65040;HTU21D;51606;45.000;38.612;2023-02-26T16:02:55;12.52;48.36
65040;HTU21D;51606;45.000;38.612;2023-02-26T16:05:25;12.51;48.40
65040;HTU21D;51606;45.000;38.612;2023-02-26T16:07:52;12.47;48.48
65040;HTU21D;51606;45.000;38.612;2023-02-26T16:10:34;12.44;48.60
65040;HTU21D;51606;45.000;38.612;2023-02-26T16:13:05;12.42;48.70
65040;HTU21D;51606;45.000;38.612;2023-02-26T16:15:35;12.43;48.68
65040;HTU21D;51606;45.000;38.612;2023-02-26T16:18:12;12.36;48.74
65040;HTU21D;51606;45.000;38.612;2023-02-26T16:20:44;12.29;48.88
65040;HTU21D;51606;45.000;38.612;2023-02-26T16:23:15;12.20;49.02
65040;HTU21D;51606;45.000;38.612;2023-02-26T16:25:55;12.15;49.14
65040;HTU21D;51606;45.000;38.612;2023-02-26T16:28:28;12.07;49.21
65040;HTU21D;51606;45.000;38.612;2023-02-26T16:30:58;12.02;49.31
65040;HTU21D;51606;45.000;38.612;2023-02-26T16:33:26;11.99;49.37
65040;HTU21D;51606;45.000;38.612;2023-02-26T16:36:04;11.98;49.39
65040;HTU21D;51606;45.000;38.612;2023-02-26T16:38:42;11.89;49.46
65040;HTU21D;51606;45.000;38.612;2023-02-26T16:41:10;11.79;49.59
65040;HTU21D;51606;45.000;38.612;2023-02-26T16:46:12;11.61;49.85
65040;HTU21D;51606;45.000;38.612;2023-02-26T16:48:46;11.55;49.97
65040;HTU21D;51606;45.000;38.612;2023-02-26T16:51:18;11.55;50.02
65040;HTU21D;51606;45.000;38.612;2023-02-26T17:05:28;11.93;49.64
65040;HTU21D;51606;45.000;38.612;2023-02-26T17:08:04;11.97;49.63
65040;HTU21D;51606;45.000;38.612;2023-02-26T17:10:34;11.99;49.63
65040;HTU21D;51606;45.000;38.612;2023-02-26T17:13:25;12.04;49.66
65040;HTU21D;51606;45.000;38.612;2023-02-26T17:15:56;12.04;49.62
65040;HTU21D;51606;45.000;38.612;2023-02-26T17:18:23;12.02;49.68
65040;HTU21D;51606;45.000;38.612;2023-02-26T17:20:50;12.03;49.75
65040;HTU21D;51606;45.000;38.612;2023-02-26T17:23:18;12.01;49.79
65040;HTU21D;51606;45.000;38.612;2023-02-26T17:25:49;11.96;49.85
65040;HTU21D;51606;45.000;38.612;2023-02-26T17:28:36;11.91;49.96
65040;HTU21D;51606;45.000;38.612;2023-02-26T17:31:05;11.84;50.04
65040;HTU21D;51606;45.000;38.612;2023-02-26T17:33:40;11.79;50.17
65040;HTU21D;51606;45.000;38.612;2023-02-26T17:36:09;11.79;50.08
65040;HTU21D;51606;45.000;38.612;2023-02-26T17:38:36;11.69;50.20
65040;HTU21D;51606;45.000;38.612;2023-02-26T17:41:03;11.66;50.27
65040;HTU21D;51606;45.000;38.612;2023-02-26T17:43:29;11.66;50.28
65040;HTU21D;51606;45.000;38.612;2023-02-26T17:45:56;11.57;50.37
65040;HTU21D;51606;45.000;38.612;2023-02-26T17:48:23;11.47;50.51
65040;HTU21D;51606;45.000;38.612;2023-02-26T17:50:52;11.40;50.66
65040;HTU21D;51606;45.000;38.612;2023-02-26T17:53:21;11.34;50.70
65040;HTU21D;51606;45.000;38.612;2023-02-26T17:55:49;11.29;50.74
65040;HTU21D;51606;45.000;38.612;2023-02-26T17:58:21;11.15;50.90
65040;HTU21D;51606;45.000;38.612;2023-02-26T18:00:51;10.99;51.08
65040;HTU21D;51606;45.000;38.612;2023-02-26T18:03:18;10.81;51.28
65040;HTU21D;51606;45.000;38.612;2023-02-26T18:05:47;10.63;51.51
65040;HTU21D;51606;45.000;38.612;2023-02-26T18:08:19;10.51;51.66
65040;HTU21D;51606;45.000;38.612;2023-02-26T18:10:46;10.48;51.72
65040;HTU21D;51606;45.000;38.612;2023-02-26T18:13:12;10.48;51.66
65040;HTU21D;51606;45.000;38.612;2023-02-26T18:15:39;10.53;51.60
65040;HTU21D;51606;45.000;38.612;2023-02-26T18:18:05;10.69;51.43
65040;HTU21D;51606;45.000;38.612;2023-02-26T18:20:31;10.80;51.16
65040;HTU21D;51606;45.000;38.612;2023-02-26T18:22:58;10.84;51.06
65040;HTU21D;51606;45.000;38.612;2023-02-26T18:25:25;10.87;51.04
65040;HTU21D;51606;45.000;38.612;2023-02-26T18:27:54;10.90;51.03
65040;HTU21D;51606;45.000;38.612;2023-02-26T18:30:27;10.97;50.96
65040;HTU21D;51606;45.000;38.612;2023-02-26T18:32:54;10.98;50.94
65040;HTU21D;51606;45.000;38.612;2023-02-26T18:35:25;11.00;50.95
65040;HTU21D;51606;45.000;38.612;2023-02-26T18:37:53;11.04;50.93
65040;HTU21D;51606;45.000;38.612;2023-02-26T18:40:22;11.13;50.87
65040;HTU21D;51606;45.000;38.612;2023-02-26T18:42:49;11.13;50.82
65040;HTU21D;51606;45.000;38.612;2023-02-26T18:45:17;11.15;50.81
65040;HTU21D;51606;45.000;38.612;2023-02-26T18:47:45;11.19;50.77
65040;HTU21D;51606;45.000;38.612;2023-02-26T18:50:13;11.27;50.69
65040;HTU21D;51606;45.000;38.612;2023-02-26T18:52:41;11.28;50.66
65040;HTU21D;51606;45.000;38.612;2023-02-26T18:55:09;11.32;50.63
65040;HTU21D;51606;45.000;38.612;2023-02-26T18:57:37;11.43;50.53
65040;HTU21D;51606;45.000;38.612;2023-02-26T19:00:10;11.44;50.47
65040;HTU21D;51606;45.000;38.612;2023-02-26T19:02:42;11.42;50.49
65040;HTU21D;51606;45.000;38.612;2023-02-26T19:05:10;11.44;50.52
65040;HTU21D;51606;45.000;38.612;2023-02-26T19:07:37;11.40;50.53
65040;HTU21D;51606;45.000;38.612;2023-02-26T19:10:04;11.40;50.51
65040;HTU21D;51606;45.000;38.612;2023-02-26T19:12:31;11.37;50.58
65040;HTU21D;51606;45.000;38.612;2023-02-26T19:14:57;11.31;50.65
65040;HTU21D;51606;45.000;38.612;2023-02-26T19:17:24;11.29;50.63
65040;HTU21D;51606;45.000;38.612;2023-02-26T19:19:50;11.28;50.60
65040;HTU21D;51606;45.000;38.612;2023-02-26T19:22:17;11.27;50.55
65040;HTU21D;51606;45.000;38.612;2023-02-26T19:24:43;11.24;50.53
65040;HTU21D;51606;45.000;38.612;2023-02-26T19:27:12;11.14;50.65
65040;HTU21D;51606;45.000;38.612;2023-02-26T19:29:39;11.13;50.63
65040;HTU21D;51606;45.000;38.612;2023-02-26T19:32:06;11.08;50.63
65040;HTU21D;51606;45.000;38.612;2023-02-26T19:34:33;11.00;50.72
65040;HTU21D;51606;45.000;38.612;2023-02-26T19:37:00;10.94;50.76
65040;HTU21D;51606;45.000;38.612;2023-02-26T19:39:26;10.90;50.75
65040;HTU21D;51606;45.000;38.612;2023-02-26T19:41:53;10.89;50.69
65040;HTU21D;51606;45.000;38.612;2023-02-26T19:44:21;10.92;50.63
65040;HTU21D;51606;45.000;38.612;2023-02-26T19:46:48;10.95;50.54
65040;HTU21D;51606;45.000;38.612;2023-02-26T19:49:15;10.98;50.47
65040;HTU21D;51606;45.000;38.612;2023-02-26T19:51:42;11.00;50.37
65040;HTU21D;51606;45.000;38.612;2023-02-26T19:54:08;11.08;50.27
65040;HTU21D;51606;45.000;38.612;2023-02-26T19:56:35;11.13;50.20
65040;HTU21D;51606;45.000;38.612;2023-02-26T19:59:01;11.15;50.13
65040;HTU21D;51606;45.000;38.612;2023-02-26T20:01:28;11.19;50.08
65040;HTU21D;51606;45.000;38.612;2023-02-26T20:03:54;11.22;50.08
65040;HTU21D;51606;45.000;38.612;2023-02-26T20:06:21;11.19;50.11
65040;HTU21D;51606;45.000;38.612;2023-02-26T20:08:47;11.19;50.14
65040;HTU21D;51606;45.000;38.612;2023-02-26T20:11:14;11.28;50.05
65040;HTU21D;51606;45.000;38.612;2023-02-26T20:13:40;11.36;49.87
65040;HTU21D;51606;45.000;38.612;2023-02-26T20:16:08;11.41;49.71
65040;HTU21D;51606;45.000;38.612;2023-02-26T20:18:35;11.41;49.76
65040;HTU21D;51606;45.000;38.612;2023-02-26T20:21:07;11.44;49.79
65040;HTU21D;51606;45.000;38.612;2023-02-26T20:23:36;11.52;49.60
65040;HTU21D;51606;45.000;38.612;2023-02-26T20:26:08;11.57;49.53
65040;HTU21D;51606;45.000;38.612;2023-02-26T20:28:35;11.61;49.38
65040;HTU21D;51606;45.000;38.612;2023-02-26T20:31:02;11.73;49.24
65040;HTU21D;51606;45.000;38.612;2023-02-26T20:33:28;11.89;48.99
65040;HTU21D;51606;45.000;38.612;2023-02-26T20:35:58;11.96;48.95
65040;HTU21D;51606;45.000;38.612;2023-02-26T20:38:25;11.99;48.94
65040;HTU21D;51606;45.000;38.612;2023-02-26T20:40:53;12.00;48.86
65040;HTU21D;51606;45.000;38.612;2023-02-26T20:43:20;12.01;48.89
65040;HTU21D;51606;45.000;38.612;2023-02-26T20:45:47;11.97;48.92
65040;HTU21D;51606;45.000;38.612;2023-02-26T20:48:14;11.94;49.00
65040;HTU21D;51606;45.000;38.612;2023-02-26T20:50:40;11.88;49.04
65040;HTU21D;51606;45.000;38.612;2023-02-26T20:53:06;11.85;49.14
65040;HTU21D;51606;45.000;38.612;2023-02-26T20:55:33;11.79;49.21
65040;HTU21D;51606;45.000;38.612;2023-02-26T20:58:00;11.79;49.20
65040;HTU21D;51606;45.000;38.612;2023-02-26T21:00:27;11.78;49.19
65040;HTU21D;51606;45.000;38.612;2023-02-26T21:02:53;11.76;49.24
65040;HTU21D;51606;45.000;38.612;2023-02-26T21:05:20;11.71;49.31
65040;HTU21D;51606;45.000;38.612;2023-02-26T21:07:47;11.68;49.40
65040;HTU21D;51606;45.000;38.612;2023-02-26T21:10:15;11.61;49.45
65040;HTU21D;51606;45.000;38.612;2023-02-26T21:12:42;11.62;49.37
65040;HTU21D;51606;45.000;38.612;2023-02-26T21:15:09;11.66;49.28
65040;HTU21D;51606;45.000;38.612;2023-02-26T21:17:37;11.63;49.24
65040;HTU21D;51606;45.000;38.612;2023-02-26T21:20:04;11.66;49.21
65040;HTU21D;51606;45.000;38.612;2023-02-26T21:22:32;11.67;49.09
65040;HTU21D;51606;45.000;38.612;2023-02-26T21:25:01;11.73;48.98
65040;HTU21D;51606;45.000;38.612;2023-02-26T21:27:27;11.77;48.91
65040;HTU21D;51606;45.000;38.612;2023-02-26T21:29:53;11.75;48.98
65040;HTU21D;51606;45.000;38.612;2023-02-26T21:32:20;11.64;49.15
65040;HTU21D;51606;45.000;38.612;2023-02-26T21:34:46;11.48;49.41
65040;HTU21D;51606;45.000;38.612;2023-02-26T21:37:12;11.30;49.68
65040;HTU21D;51606;45.000;38.612;2023-02-26T21:39:38;11.22;49.84
65040;HTU21D;51606;45.000;38.612;2023-02-26T21:42:07;11.10;49.91
65040;HTU21D;51606;45.000;38.612;2023-02-26T21:44:34;10.90;50.18
65040;HTU21D;51606;45.000;38.612;2023-02-26T21:49:43;10.50;50.75
65040;HTU21D;51606;45.000;38.612;2023-02-26T21:52:10;10.33;50.94
65040;HTU21D;51606;45.000;38.612;2023-02-26T21:54:37;10.14;51.13
65040;HTU21D;51606;45.000;38.612;2023-02-26T21:57:03;10.00;51.30
65040;HTU21D;51606;45.000;38.612;2023-02-26T21:59:30;9.82;51.48
65040;HTU21D;51606;45.000;38.612;2023-02-26T22:01:56;9.77;51.57
65040;HTU21D;51606;45.000;38.612;2023-02-26T22:04:23;9.77;51.50
65040;HTU21D;51606;45.000;38.612;2023-02-26T22:06:50;9.78;51.40
65040;HTU21D;51606;45.000;38.612;2023-02-26T22:09:17;9.78;51.30
65040;HTU21D;51606;45.000;38.612;2023-02-26T22:11:46;9.80;51.22
65040;HTU21D;51606;45.000;38.612;2023-02-26T22:14:13;9.77;51.20
65040;HTU21D;51606;45.000;38.612;2023-02-26T22:16:40;9.84;51.17
65040;HTU21D;51606;45.000;38.612;2023-02-26T22:19:06;10.01;50.89
65040;HTU21D;51606;45.000;38.612;2023-02-26T22:21:32;10.20;50.64
65040;HTU21D;51606;45.000;38.612;2023-02-26T22:23:59;10.41;50.37
65040;HTU21D;51606;45.000;38.612;2023-02-26T22:26:28;10.59;50.12
65040;HTU21D;51606;45.000;38.612;2023-02-26T22:28:55;10.71;49.96
65040;HTU21D;51606;45.000;38.612;2023-02-26T22:31:24;10.82;49.85
65040;HTU21D;51606;45.000;38.612;2023-02-26T22:33:50;10.90;49.79
65040;HTU21D;51606;45.000;38.612;2023-02-26T22:36:16;11.04;49.64
65040;HTU21D;51606;45.000;38.612;2023-02-26T22:38:43;11.15;49.49
65040;HTU21D;51606;45.000;38.612;2023-02-26T22:41:09;11.26;49.37
65040;HTU21D;51606;45.000;38.612;2023-02-26T22:43:36;11.30;49.30
65040;HTU21D;51606;45.000;38.612;2023-02-26T22:46:02;11.32;49.29
65040;HTU21D;51606;45.000;38.612;2023-02-26T22:48:28;11.37;49.31